createdAt,value
2017-04-14T03:00:16.483Z,18.97
2017-04-14T03:00:42.072Z,18.94
2017-04-14T03:01:07.676Z,19.02
2017-04-14T03:01:33.252Z,19.05
2017-04-14T03:01:58.821Z,19.01
2017-04-14T03:02:24.396Z,18.97
2017-04-14T03:02:50.009Z,19.05
2017-04-14T03:03:15.592Z,18.97
2017-04-14T03:03:41.254Z,19.01
2017-04-14T03:04:06.808Z,19.01
2017-04-14T03:04:32.429Z,19.01
2017-04-14T03:04:57.944Z,19.06
2017-04-14T03:05:23.510Z,19.06
2017-04-14T03:05:49.185Z,19.02
2017-04-14T03:06:14.758Z,19.06
2017-04-14T03:06:41.381Z,19.02
2017-04-14T03:07:07.019Z,19.02
2017-04-14T03:07:32.543Z,18.98
2017-04-14T03:07:58.210Z,19.02
2017-04-14T03:08:23.767Z,19.02
2017-04-14T03:08:49.462Z,19.06
2017-04-14T03:09:15.071Z,19.06
2017-04-14T03:09:40.661Z,18.97
2017-04-14T03:10:06.325Z,19.06
2017-04-14T03:10:31.901Z,19.08
2017-04-14T03:10:57.466Z,18.99
2017-04-14T03:11:23.132Z,18.95
2017-04-14T03:11:48.704Z,18.99
2017-04-14T03:12:14.282Z,19.02
2017-04-14T03:12:39.889Z,19.06
2017-04-14T03:13:05.491Z,18.99
2017-04-14T03:13:31.189Z,18.99
2017-04-14T03:13:56.782Z,19.05
2017-04-14T03:14:22.401Z,18.92
2017-04-14T03:14:47.965Z,19.08
2017-04-14T03:15:13.524Z,19.05
2017-04-14T03:15:39.223Z,19.01
2017-04-14T03:16:04.811Z,18.97
2017-04-14T03:16:30.452Z,18.99
2017-04-14T03:16:56.000Z,19.06
2017-04-14T03:17:21.550Z,18.98
2017-04-14T03:17:47.110Z,18.98
2017-04-14T03:18:12.660Z,19.06
2017-04-14T03:18:38.264Z,19.05
2017-04-14T03:19:03.842Z,18.98
2017-04-14T03:19:29.488Z,19.01
2017-04-14T03:19:55.045Z,19.01
2017-04-14T03:20:20.751Z,19.02
2017-04-14T03:20:46.342Z,19.01
2017-04-14T03:21:11.937Z,19.01
2017-04-14T03:21:37.549Z,19.05
2017-04-14T03:22:03.091Z,19.02
2017-04-14T03:22:28.686Z,18.99
2017-04-14T03:22:54.266Z,19.01
2017-04-14T03:23:19.854Z,19.05
2017-04-14T03:23:45.423Z,19.01
2017-04-14T03:24:10.984Z,19.01
2017-04-14T03:24:36.612Z,18.98
2017-04-14T03:25:02.179Z,19.01
2017-04-14T03:25:27.740Z,19.02
2017-04-14T03:25:53.481Z,18.98
2017-04-14T03:26:19.053Z,19.01
2017-04-14T03:26:44.782Z,19.01
2017-04-14T03:27:10.413Z,18.97
2017-04-14T03:27:35.982Z,19.01
2017-04-14T03:28:01.598Z,18.99
2017-04-14T03:28:27.226Z,18.98
2017-04-14T03:28:52.868Z,18.99
2017-04-14T03:29:18.541Z,18.98
2017-04-14T03:29:44.101Z,19.05
2017-04-14T03:30:09.674Z,18.97
2017-04-14T03:30:35.233Z,19.01
2017-04-14T03:31:00.932Z,18.95
2017-04-14T03:31:26.550Z,19.02
2017-04-14T03:31:52.113Z,18.98
2017-04-14T03:32:17.765Z,19.05
2017-04-14T03:32:43.312Z,19.06
2017-04-14T03:33:08.933Z,19.06
2017-04-14T03:33:34.589Z,19.01
2017-04-14T03:34:00.142Z,18.98
2017-04-14T03:34:25.762Z,19.02
2017-04-14T03:34:51.347Z,19.05
2017-04-14T03:35:16.934Z,19.01
2017-04-14T03:35:42.549Z,19.02
2017-04-14T03:36:08.110Z,19.01
2017-04-14T03:36:33.812Z,19.06
2017-04-14T03:36:59.544Z,19.02
2017-04-14T03:37:25.111Z,18.95
2017-04-14T03:37:50.753Z,19.06
2017-04-14T03:38:16.329Z,18.95
2017-04-14T03:38:41.964Z,18.98
2017-04-14T03:39:07.602Z,19.01
2017-04-14T03:39:33.155Z,19.02
2017-04-14T03:39:58.776Z,19.02
2017-04-14T03:40:24.327Z,19.01
2017-04-14T03:40:49.890Z,19.01
2017-04-14T03:41:15.565Z,19.02
2017-04-14T03:42:09.223Z,18.94
2017-04-14T03:42:34.833Z,18.99
2017-04-14T03:43:00.390Z,18.98
2017-04-14T03:43:25.987Z,19.02
2017-04-14T03:43:51.609Z,19.06
2017-04-14T03:44:17.182Z,19.05
2017-04-14T03:44:42.824Z,19.02
2017-04-14T03:45:08.380Z,19.02
2017-04-14T03:45:33.993Z,18.99
2017-04-14T03:45:59.646Z,19.01
2017-04-14T03:46:25.190Z,19.05
2017-04-14T03:46:50.818Z,18.99
2017-04-14T03:47:16.363Z,19.01
2017-04-14T03:47:42.044Z,19.02
2017-04-14T03:48:07.760Z,18.98
2017-04-14T03:48:33.309Z,19.08
2017-04-14T03:48:58.927Z,18.92
2017-04-14T03:49:24.491Z,18.97
2017-04-14T03:49:50.032Z,18.99
2017-04-14T03:50:15.590Z,18.94
2017-04-14T03:50:41.219Z,18.94
2017-04-14T03:51:06.829Z,18.97
2017-04-14T03:51:32.379Z,18.98
2017-04-14T03:51:58.067Z,18.98
2017-04-14T03:52:23.775Z,18.92
2017-04-14T03:52:49.450Z,18.95
2017-04-14T03:53:15.089Z,18.99
2017-04-14T03:53:40.748Z,18.99
2017-04-14T03:54:06.242Z,18.95
2017-04-14T03:54:31.812Z,19.02
2017-04-14T03:54:57.363Z,18.91
2017-04-14T03:55:23.090Z,18.95
2017-04-14T03:55:48.684Z,19.01
2017-04-14T03:56:14.303Z,18.99
2017-04-14T03:56:39.979Z,18.99
2017-04-14T03:57:05.540Z,19.05
2017-04-14T03:57:31.140Z,18.99
2017-04-14T03:57:56.804Z,18.97
2017-04-14T03:58:22.302Z,18.98
2017-04-14T03:58:47.949Z,18.99
2017-04-14T03:59:13.540Z,18.94
2017-04-14T03:59:39.281Z,19.02
2017-04-14T04:00:04.853Z,19.01
2017-04-14T04:00:30.423Z,19.01
2017-04-14T04:00:56.051Z,18.97
2017-04-14T04:01:21.600Z,19.05
2017-04-14T04:01:47.367Z,18.95
2017-04-14T04:02:13.040Z,18.98
2017-04-14T04:02:38.633Z,18.95
2017-04-14T04:03:04.267Z,18.97
2017-04-14T04:03:29.962Z,18.99
2017-04-14T04:03:55.613Z,19.05
2017-04-14T04:04:21.277Z,18.9
2017-04-14T04:04:46.844Z,18.97
2017-04-14T04:05:12.423Z,18.99
2017-04-14T04:05:38.069Z,18.99
2017-04-14T04:06:03.616Z,18.99
2017-04-14T04:06:29.211Z,18.98
2017-04-14T04:06:54.756Z,19.01
2017-04-14T04:07:20.338Z,18.98
2017-04-14T04:07:45.924Z,19.01
2017-04-14T04:08:11.536Z,18.95
2017-04-14T04:08:37.158Z,18.97
2017-04-14T04:09:02.697Z,18.95
2017-04-14T04:09:28.344Z,18.9
2017-04-14T04:09:53.945Z,18.97
2017-04-14T04:10:19.510Z,18.99
2017-04-14T04:10:45.209Z,18.97
2017-04-14T04:11:10.779Z,19.05
2017-04-14T04:11:36.388Z,18.92
2017-04-14T04:12:02.031Z,18.87
2017-04-14T04:12:27.568Z,18.95
2017-04-14T04:12:53.214Z,18.98
2017-04-14T04:13:18.776Z,18.92
2017-04-14T04:13:44.461Z,18.98
2017-04-14T04:14:10.063Z,18.98
2017-04-14T04:14:35.623Z,19.01
2017-04-14T04:15:01.280Z,19.02
2017-04-14T04:15:26.882Z,18.97
2017-04-14T04:15:52.430Z,18.95
2017-04-14T04:16:17.984Z,18.97
2017-04-14T04:16:44.413Z,18.99
2017-04-14T04:17:09.968Z,18.95
2017-04-14T04:17:35.602Z,18.98
2017-04-14T04:18:01.303Z,18.98
2017-04-14T04:18:26.880Z,18.97
2017-04-14T04:18:52.663Z,18.95
2017-04-14T04:19:18.267Z,18.97
2017-04-14T04:19:43.810Z,18.98
2017-04-14T04:20:09.388Z,18.97
2017-04-14T04:20:34.965Z,18.97
2017-04-14T04:21:00.530Z,18.98
2017-04-14T04:21:26.132Z,18.98
2017-04-14T04:21:51.673Z,18.95
2017-04-14T04:22:17.303Z,18.99
2017-04-14T04:22:42.860Z,18.92
2017-04-14T04:23:08.459Z,18.98
2017-04-14T04:23:34.005Z,18.92
2017-04-14T04:23:59.559Z,18.94
2017-04-14T04:24:25.125Z,18.91
2017-04-14T04:24:50.793Z,18.98
2017-04-14T04:25:16.421Z,18.97
2017-04-14T04:25:42.030Z,18.94
2017-04-14T04:26:07.573Z,18.98
2017-04-14T04:26:33.124Z,19.01
2017-04-14T04:26:58.762Z,18.99
2017-04-14T04:27:24.493Z,18.99
2017-04-14T04:27:50.061Z,18.98
2017-04-14T04:28:15.639Z,18.97
2017-04-14T04:28:41.303Z,18.97
2017-04-14T04:29:06.862Z,18.98
2017-04-14T04:29:32.461Z,18.92
2017-04-14T04:29:58.044Z,18.99
2017-04-14T04:30:23.686Z,18.97
2017-04-14T04:30:49.349Z,18.92
2017-04-14T04:31:29.704Z,18.94
2017-04-14T04:31:55.257Z,18.98
2017-04-14T04:32:20.862Z,18.99
2017-04-14T04:32:46.559Z,18.92
2017-04-14T04:33:13.144Z,18.95
2017-04-14T04:33:38.715Z,18.91
2017-04-14T04:34:04.403Z,18.99
2017-04-14T04:34:30.129Z,18.94
2017-04-14T04:34:55.750Z,18.99
2017-04-14T04:35:21.374Z,18.98
2017-04-14T04:35:46.981Z,18.97
2017-04-14T04:36:12.662Z,18.94
2017-04-14T04:36:38.212Z,18.97
2017-04-14T04:37:03.782Z,18.99
2017-04-14T04:37:29.367Z,18.87
2017-04-14T04:37:54.922Z,18.92
2017-04-14T04:38:20.623Z,18.98
2017-04-14T04:38:46.183Z,18.9
2017-04-14T04:39:11.752Z,18.97
2017-04-14T04:39:37.299Z,18.95
2017-04-14T04:40:02.940Z,18.98
2017-04-14T04:40:28.547Z,18.97
2017-04-14T04:40:54.095Z,19.01
2017-04-14T04:41:19.678Z,19.02
2017-04-14T04:41:45.221Z,18.99
2017-04-14T04:42:11.741Z,19.01
2017-04-14T04:42:37.309Z,18.99
2017-04-14T04:43:02.945Z,18.92
2017-04-14T04:43:28.581Z,18.94
2017-04-14T04:43:54.139Z,18.99
2017-04-14T04:44:19.803Z,18.97
2017-04-14T04:44:45.360Z,18.92
2017-04-14T04:45:11.051Z,18.95
2017-04-14T04:45:36.693Z,18.98
2017-04-14T04:46:02.254Z,18.97
2017-04-14T04:46:27.959Z,18.98
2017-04-14T04:46:53.606Z,18.94
2017-04-14T04:47:19.190Z,18.87
2017-04-14T04:47:44.808Z,18.91
2017-04-14T04:48:10.382Z,18.95
2017-04-14T04:48:35.978Z,18.94
2017-04-14T04:49:01.669Z,18.99
2017-04-14T04:49:32.239Z,18.97
2017-04-14T04:49:57.808Z,18.97
2017-04-14T04:50:23.355Z,18.99
2017-04-14T04:50:49.029Z,18.97
2017-04-14T04:51:14.610Z,18.95
2017-04-14T04:51:40.185Z,19.01
2017-04-14T04:52:05.796Z,18.99
2017-04-14T04:52:31.362Z,18.97
2017-04-14T04:52:57.000Z,18.95
2017-04-14T04:53:22.702Z,18.98
2017-04-14T04:53:48.340Z,18.92
2017-04-14T04:54:13.980Z,19.02
2017-04-14T04:54:39.573Z,18.99
2017-04-14T04:55:05.248Z,18.95
2017-04-14T04:55:30.962Z,18.97
2017-04-14T04:55:56.533Z,18.99
2017-04-14T04:56:22.235Z,18.99
2017-04-14T04:56:47.931Z,18.99
2017-04-14T04:57:13.590Z,18.97
2017-04-14T04:57:39.190Z,18.97
2017-04-14T04:58:04.765Z,19.02
2017-04-14T04:58:30.340Z,18.98
2017-04-14T04:58:56.061Z,18.98
2017-04-14T04:59:21.621Z,18.98
2017-04-14T04:59:47.179Z,18.92
2017-04-14T05:00:12.821Z,18.95
2017-04-14T05:00:38.367Z,18.86
2017-04-14T05:01:03.990Z,18.91
2017-04-14T05:01:29.547Z,18.94
2017-04-14T05:01:55.140Z,18.9
2017-04-14T05:02:20.703Z,18.91
2017-04-14T05:02:46.330Z,18.95
2017-04-14T05:03:11.958Z,18.92
2017-04-14T05:03:37.517Z,18.98
2017-04-14T05:04:03.152Z,18.94
2017-04-14T05:04:28.701Z,18.97
2017-04-14T05:04:54.246Z,18.92
2017-04-14T05:05:19.861Z,18.98
2017-04-14T05:05:45.450Z,18.94
2017-04-14T05:06:11.022Z,18.98
2017-04-14T05:06:36.572Z,18.99
2017-04-14T05:07:02.223Z,18.99
2017-04-14T05:07:27.804Z,18.99
2017-04-14T05:07:53.384Z,18.97
2017-04-14T05:08:18.954Z,18.95
2017-04-14T05:08:44.501Z,18.94
2017-04-14T05:09:10.082Z,18.94
2017-04-14T05:09:35.643Z,18.98
2017-04-14T05:10:01.211Z,18.95
2017-04-14T05:10:26.796Z,18.98
2017-04-14T05:10:52.437Z,18.95
2017-04-14T05:11:18.063Z,18.95
2017-04-14T05:11:43.634Z,18.97
2017-04-14T05:12:09.327Z,18.98
2017-04-14T05:12:35.041Z,18.87
2017-04-14T05:13:00.599Z,18.97
2017-04-14T05:13:26.227Z,18.9
2017-04-14T05:13:51.860Z,18.9
2017-04-14T05:14:17.522Z,18.9
2017-04-14T05:14:43.174Z,18.92
2017-04-14T05:15:21.362Z,18.87
2017-04-14T05:15:46.966Z,18.99
2017-04-14T05:16:12.568Z,18.98
2017-04-14T05:16:38.216Z,18.97
2017-04-14T05:17:03.783Z,18.99
2017-04-14T05:17:29.422Z,18.98
2017-04-14T05:17:55.047Z,18.94
2017-04-14T05:18:20.653Z,18.98
2017-04-14T05:18:46.253Z,18.9
2017-04-14T05:19:11.819Z,18.94
2017-04-14T05:19:37.403Z,18.91
2017-04-14T05:20:02.953Z,18.95
2017-04-14T05:20:29.404Z,18.92
2017-04-14T05:20:54.962Z,18.98
2017-04-14T05:21:20.571Z,18.98
2017-04-14T05:21:46.262Z,18.92
2017-04-14T05:22:11.813Z,18.97
2017-04-14T05:22:37.513Z,18.91
2017-04-14T05:23:03.148Z,18.94
2017-04-14T05:23:28.742Z,18.98
2017-04-14T05:23:55.215Z,18.97
2017-04-14T05:24:20.780Z,18.97
2017-04-14T05:24:46.424Z,18.98
2017-04-14T05:25:12.183Z,18.94
2017-04-14T05:25:37.750Z,18.95
2017-04-14T05:26:03.444Z,19.01
2017-04-14T05:26:29.001Z,18.94
2017-04-14T05:26:54.563Z,18.97
2017-04-14T05:27:20.160Z,18.94
2017-04-14T05:27:47.740Z,18.92
2017-04-14T05:28:13.393Z,18.92
2017-04-14T05:28:55.887Z,18.97
2017-04-14T05:29:21.501Z,18.94
2017-04-14T05:29:47.058Z,18.95
2017-04-14T05:30:17.620Z,18.98
2017-04-14T05:30:43.287Z,18.92
2017-04-14T05:31:37.031Z,18.91
2017-04-14T05:32:02.634Z,18.94
2017-04-14T05:32:28.338Z,18.98
2017-04-14T05:32:53.974Z,18.87
2017-04-14T05:33:19.641Z,18.9
2017-04-14T05:33:45.303Z,18.91
2017-04-14T05:34:10.803Z,18.92
2017-04-14T05:34:36.488Z,18.98
2017-04-14T05:35:02.054Z,18.94
2017-04-14T05:35:27.710Z,18.94
2017-04-14T05:35:53.322Z,18.91
2017-04-14T05:36:18.915Z,18.97
2017-04-14T05:36:44.546Z,18.95
2017-04-14T05:37:10.109Z,18.9
2017-04-14T05:37:35.840Z,18.97
2017-04-14T05:38:01.484Z,18.95
2017-04-14T05:38:27.045Z,18.94
2017-04-14T05:38:52.747Z,18.92
2017-04-14T05:39:18.399Z,18.91
2017-04-14T05:39:43.975Z,18.97
2017-04-14T05:40:09.656Z,18.97
2017-04-14T05:40:35.232Z,18.87
2017-04-14T05:41:00.923Z,18.98
2017-04-14T05:41:26.545Z,18.94
2017-04-14T05:41:52.098Z,18.97
2017-04-14T05:42:17.750Z,18.9
2017-04-14T05:42:43.415Z,18.94
2017-04-14T05:43:08.958Z,18.99
2017-04-14T05:43:34.580Z,18.94
2017-04-14T05:44:00.258Z,18.92
2017-04-14T05:44:25.914Z,18.95
2017-04-14T05:44:51.542Z,18.92
2017-04-14T05:45:17.106Z,18.94
2017-04-14T05:45:42.731Z,18.9
2017-04-14T05:46:08.304Z,18.95
2017-04-14T05:46:33.889Z,18.87
2017-04-14T05:46:59.501Z,18.92
2017-04-14T05:47:25.165Z,18.94
2017-04-14T05:48:28.705Z,18.94
2017-04-14T05:48:54.286Z,18.97
2017-04-14T05:49:20.045Z,18.92
2017-04-14T05:49:45.661Z,18.91
2017-04-14T05:50:11.243Z,18.97
2017-04-14T05:50:36.891Z,18.84
2017-04-14T05:51:02.460Z,18.94
2017-04-14T05:51:28.207Z,18.87
2017-04-14T05:51:53.850Z,18.92
2017-04-14T05:52:19.486Z,18.95
2017-04-14T05:52:45.090Z,18.91
2017-04-14T05:53:10.680Z,18.98
2017-04-14T05:53:36.235Z,18.92
2017-04-14T05:54:01.876Z,18.95
2017-04-14T05:54:27.427Z,18.91
2017-04-14T05:54:53.010Z,18.97
2017-04-14T05:55:18.670Z,18.92
2017-04-14T05:55:44.262Z,18.91
2017-04-14T05:56:10.082Z,18.94
2017-04-14T05:56:35.674Z,18.91
2017-04-14T05:57:01.240Z,18.95
2017-04-14T05:57:26.874Z,18.98
2017-04-14T05:57:52.460Z,18.92
2017-04-14T05:58:18.040Z,18.9
2017-04-14T05:58:43.671Z,18.86
2017-04-14T05:59:09.176Z,18.94
2017-04-14T05:59:34.839Z,18.94
2017-04-14T06:00:00.402Z,18.9
2017-04-14T06:00:53.827Z,18.91
2017-04-14T06:01:19.392Z,18.9
2017-04-14T06:01:44.939Z,18.9
2017-04-14T06:02:10.508Z,18.91
2017-04-14T06:02:36.073Z,18.95
2017-04-14T06:03:01.662Z,18.98
2017-04-14T06:03:27.219Z,18.94
2017-04-14T06:03:52.791Z,18.97
2017-04-14T06:04:18.360Z,18.9
2017-04-14T06:04:43.932Z,18.91
2017-04-14T06:05:09.490Z,18.9
2017-04-14T06:05:35.094Z,18.9
2017-04-14T06:06:00.653Z,18.94
2017-04-14T06:06:26.211Z,18.86
2017-04-14T06:06:51.842Z,18.94
2017-04-14T06:07:17.394Z,18.94
2017-04-14T06:07:42.958Z,18.86
2017-04-14T06:08:08.640Z,18.94
2017-04-14T06:08:34.280Z,18.94
2017-04-14T06:08:59.840Z,18.87
2017-04-14T06:09:25.404Z,18.95
2017-04-14T06:09:51.082Z,18.92
2017-04-14T06:10:16.644Z,18.9
2017-04-14T06:10:42.215Z,18.94
2017-04-14T06:11:07.884Z,18.92
2017-04-14T06:11:33.434Z,18.95
2017-04-14T06:11:59.003Z,18.91
2017-04-14T06:12:24.624Z,18.94
2017-04-14T06:12:50.183Z,18.92
2017-04-14T06:13:15.745Z,18.94
2017-04-14T06:13:41.303Z,18.95
2017-04-14T06:14:06.911Z,18.91
2017-04-14T06:14:32.474Z,18.91
2017-04-14T06:14:58.048Z,18.91
2017-04-14T06:15:23.619Z,18.94
2017-04-14T06:15:49.285Z,18.91
2017-04-14T06:16:14.859Z,18.97
2017-04-14T06:16:40.435Z,18.91
2017-04-14T06:17:05.991Z,18.94
2017-04-14T06:17:31.564Z,18.9
2017-04-14T06:17:57.214Z,18.87
2017-04-14T06:18:22.773Z,18.94
2017-04-14T06:18:48.328Z,18.91
2017-04-14T06:19:13.885Z,18.95
2017-04-14T06:19:39.455Z,18.95
2017-04-14T06:20:05.059Z,18.9
2017-04-14T06:20:30.624Z,18.91
2017-04-14T06:20:56.168Z,18.92
2017-04-14T06:21:21.739Z,18.91
2017-04-14T06:21:47.310Z,18.9
2017-04-14T06:22:12.870Z,18.95
2017-04-14T06:22:38.453Z,18.98
2017-04-14T06:23:04.008Z,18.97
2017-04-14T06:23:29.593Z,18.86
2017-04-14T06:23:55.153Z,18.97
2017-04-14T06:24:20.726Z,18.98
2017-04-14T06:24:46.302Z,18.99
2017-04-14T06:25:11.958Z,18.86
2017-04-14T06:25:37.504Z,18.87
2017-04-14T06:26:03.090Z,18.9
2017-04-14T06:26:28.633Z,18.87
2017-04-14T06:26:54.181Z,18.91
2017-04-14T06:27:19.750Z,18.94
2017-04-14T06:27:45.318Z,18.99
2017-04-14T06:28:10.882Z,18.87
2017-04-14T06:28:36.452Z,18.92
2017-04-14T06:29:02.018Z,18.94
2017-04-14T06:29:27.583Z,18.97
2017-04-14T06:29:53.262Z,18.92
2017-04-14T06:30:18.868Z,18.87
2017-04-14T06:30:44.423Z,18.91
2017-04-14T06:31:10.054Z,18.87
2017-04-14T06:31:35.664Z,18.94
2017-04-14T06:32:01.357Z,18.91
2017-04-14T06:32:26.910Z,18.9
2017-04-14T06:32:52.488Z,18.91
2017-04-14T06:33:18.055Z,18.92
2017-04-14T06:33:43.610Z,18.9
2017-04-14T06:34:09.168Z,18.98
2017-04-14T06:34:34.741Z,18.9
2017-04-14T06:35:00.313Z,18.91
2017-04-14T06:35:25.961Z,18.95
2017-04-14T06:35:51.523Z,18.95
2017-04-14T06:36:17.089Z,18.92
2017-04-14T06:36:42.715Z,18.95
2017-04-14T06:37:08.268Z,18.91
2017-04-14T06:37:33.840Z,18.97
2017-04-14T06:37:59.481Z,18.95
2017-04-14T06:38:25.074Z,18.94
2017-04-14T06:38:50.643Z,18.87
2017-04-14T06:39:16.275Z,18.91
2017-04-14T06:39:41.932Z,18.98
2017-04-14T06:40:07.483Z,18.95
2017-04-14T06:40:33.031Z,18.87
2017-04-14T06:40:58.579Z,18.92
2017-04-14T06:41:24.137Z,18.94
2017-04-14T06:41:49.696Z,18.94
2017-04-14T06:42:15.273Z,18.98
2017-04-14T06:42:40.848Z,18.87
2017-04-14T06:43:06.493Z,18.95
2017-04-14T06:43:32.070Z,18.92
2017-04-14T06:43:57.645Z,18.83
2017-04-14T06:44:23.194Z,18.94
2017-04-14T06:44:48.770Z,18.87
2017-04-14T06:45:14.333Z,18.9
2017-04-14T06:45:39.900Z,18.94
2017-04-14T06:46:05.456Z,18.91
2017-04-14T06:46:31.021Z,18.91
2017-04-14T06:46:56.622Z,18.87
2017-04-14T06:47:22.273Z,18.95
2017-04-14T06:47:47.843Z,18.91
2017-04-14T06:48:13.396Z,18.87
2017-04-14T06:48:38.972Z,18.97
2017-04-14T06:49:04.533Z,18.95
2017-04-14T06:49:30.092Z,18.92
2017-04-14T06:49:55.655Z,18.86
2017-04-14T06:50:21.223Z,18.94
2017-04-14T06:50:46.780Z,18.86
2017-04-14T06:51:12.365Z,18.91
2017-04-14T06:51:37.943Z,18.87
2017-04-14T06:52:03.626Z,18.83
2017-04-14T06:52:29.285Z,18.86
2017-04-14T06:52:54.820Z,18.84
2017-04-14T06:53:20.390Z,18.87
2017-04-14T06:53:45.949Z,18.84
2017-04-14T06:54:11.504Z,18.87
2017-04-14T06:54:37.063Z,18.86
2017-04-14T06:55:02.631Z,18.91
2017-04-14T06:55:28.176Z,18.84
2017-04-14T06:55:53.879Z,18.83
2017-04-14T06:56:19.453Z,18.87
2017-04-14T06:56:45.009Z,18.87
2017-04-14T06:57:10.594Z,18.84
2017-04-14T06:57:36.150Z,18.86
2017-04-14T06:58:01.706Z,18.84
2017-04-14T06:58:27.269Z,18.82
2017-04-14T06:58:52.830Z,18.84
2017-04-14T06:59:18.391Z,18.83
2017-04-14T06:59:43.969Z,18.83
2017-04-14T07:00:09.533Z,18.84
2017-04-14T07:00:35.116Z,18.83
2017-04-14T07:01:00.683Z,18.87
2017-04-14T07:01:26.371Z,18.84
2017-04-14T07:01:51.933Z,18.84
2017-04-14T07:02:17.483Z,18.84
2017-04-14T07:02:43.040Z,18.87
2017-04-14T07:03:08.602Z,18.9
2017-04-14T07:03:34.174Z,18.86
2017-04-14T07:03:59.721Z,18.86
2017-04-14T07:04:25.284Z,18.84
2017-04-14T07:04:50.843Z,18.84
2017-04-14T07:05:16.557Z,18.86
2017-04-14T07:05:42.109Z,18.83
2017-04-14T07:06:07.779Z,18.82
2017-04-14T07:06:33.354Z,18.79
2017-04-14T07:06:58.924Z,18.82
2017-04-14T07:07:24.499Z,18.84
2017-04-14T07:07:50.127Z,18.82
2017-04-14T07:08:15.694Z,18.84
2017-04-14T07:08:41.264Z,18.87
2017-04-14T07:09:29.627Z,18.9
2017-04-14T07:09:55.233Z,18.82
2017-04-14T07:10:20.802Z,18.84
2017-04-14T07:10:46.524Z,18.9
2017-04-14T07:11:12.122Z,18.91
2017-04-14T07:11:37.674Z,18.84
2017-04-14T07:12:03.235Z,18.84
2017-04-14T07:12:28.814Z,18.86
2017-04-14T07:12:54.377Z,18.84
2017-04-14T07:13:19.929Z,18.84
2017-04-14T07:13:45.494Z,18.87
2017-04-14T07:14:11.049Z,18.83
2017-04-14T07:14:36.650Z,18.92
2017-04-14T07:15:02.211Z,18.84
2017-04-14T07:15:27.780Z,18.95
2017-04-14T07:15:53.347Z,18.87
2017-04-14T07:16:18.923Z,18.91
2017-04-14T07:16:44.491Z,18.9
2017-04-14T07:17:10.057Z,18.87
2017-04-14T07:17:35.632Z,18.91
2017-04-14T07:18:01.229Z,18.83
2017-04-14T07:18:26.804Z,18.83
2017-04-14T07:18:52.360Z,18.86
2017-04-14T07:19:17.927Z,18.92
2017-04-14T07:19:43.492Z,18.83
2017-04-14T07:20:09.070Z,18.83
2017-04-14T07:20:34.636Z,18.94
2017-04-14T07:21:00.184Z,18.9
2017-04-14T07:21:25.761Z,18.87
2017-04-14T07:21:51.404Z,18.9
2017-04-14T07:22:16.985Z,18.91
2017-04-14T07:22:42.540Z,18.87
2017-04-14T07:23:08.116Z,18.87
2017-04-14T07:23:33.671Z,18.84
2017-04-14T07:23:59.261Z,18.92
2017-04-14T07:24:24.929Z,18.87
2017-04-14T07:24:50.458Z,18.87
2017-04-14T07:25:16.142Z,18.87
2017-04-14T07:25:41.700Z,18.87
2017-04-14T07:26:07.251Z,18.91
2017-04-14T07:26:32.850Z,18.97
2017-04-14T07:26:58.402Z,18.94
2017-04-14T07:27:24.010Z,18.9
2017-04-14T07:27:49.585Z,18.92
2017-04-14T07:28:15.163Z,18.92
2017-04-14T07:28:40.711Z,18.84
2017-04-14T07:29:06.298Z,18.94
2017-04-14T07:29:31.841Z,18.95
2017-04-14T07:29:57.379Z,18.92
2017-04-14T07:30:22.935Z,18.94
2017-04-14T07:30:48.500Z,18.91
2017-04-14T07:31:14.080Z,18.87
2017-04-14T07:31:39.647Z,18.87
2017-04-14T07:32:05.208Z,18.95
2017-04-14T07:32:30.781Z,18.94
2017-04-14T07:32:56.359Z,18.94
2017-04-14T07:33:21.934Z,18.97
2017-04-14T07:33:47.480Z,18.95
2017-04-14T07:34:13.039Z,18.9
2017-04-14T07:34:38.601Z,18.84
2017-04-14T07:35:04.163Z,18.91
2017-04-14T07:35:29.713Z,18.9
2017-04-14T07:35:55.260Z,18.92
2017-04-14T07:36:20.816Z,18.92
2017-04-14T07:36:46.370Z,18.87
2017-04-14T07:37:11.910Z,18.9
2017-04-14T07:37:37.471Z,18.91
2017-04-14T07:38:03.056Z,18.86
2017-04-14T07:38:28.600Z,18.92
2017-04-14T07:38:54.191Z,18.9
2017-04-14T07:39:19.702Z,18.9
2017-04-14T07:39:45.303Z,18.91
2017-04-14T07:40:10.872Z,18.9
2017-04-14T07:40:36.474Z,18.94
2017-04-14T07:41:02.050Z,18.92
2017-04-14T07:41:27.612Z,18.9
2017-04-14T07:41:53.207Z,18.87
2017-04-14T07:42:18.737Z,18.92
2017-04-14T07:42:44.294Z,18.95
2017-04-14T07:43:09.876Z,18.9
2017-04-14T07:43:35.443Z,18.87
2017-04-14T07:44:01.022Z,18.87
2017-04-14T07:44:26.578Z,18.9
2017-04-14T07:44:52.151Z,18.87
2017-04-14T07:45:17.731Z,18.91
2017-04-14T07:45:43.335Z,18.91
2017-04-14T07:46:08.913Z,18.9
2017-04-14T07:46:34.521Z,18.87
2017-04-14T07:47:00.164Z,18.91
2017-04-14T07:47:25.722Z,18.95
2017-04-14T07:47:51.384Z,18.9
2017-04-14T07:48:16.960Z,18.83
2017-04-14T07:48:42.533Z,18.91
2017-04-14T07:49:08.078Z,18.9
2017-04-14T07:49:33.662Z,18.87
2017-04-14T07:49:59.223Z,18.91
2017-04-14T07:50:24.793Z,18.84
2017-04-14T07:50:50.348Z,18.87
2017-04-14T07:51:15.915Z,18.87
2017-04-14T07:51:41.474Z,18.92
2017-04-14T07:52:07.137Z,18.86
2017-04-14T07:52:32.715Z,18.84
2017-04-14T07:52:58.377Z,18.83
2017-04-14T07:53:23.968Z,18.86
2017-04-14T07:53:49.551Z,18.9
2017-04-14T07:54:15.127Z,18.9
2017-04-14T07:54:40.791Z,18.91
2017-04-14T07:55:06.351Z,18.9
2017-04-14T07:55:31.934Z,18.84
2017-04-14T07:55:57.499Z,18.92
2017-04-14T07:56:23.073Z,18.86
2017-04-14T07:56:48.642Z,18.92
2017-04-14T07:57:14.208Z,18.82
2017-04-14T07:57:39.973Z,18.87
2017-04-14T07:58:05.553Z,18.92
2017-04-14T07:58:31.123Z,18.87
2017-04-14T07:58:56.732Z,18.84
2017-04-14T07:59:22.300Z,18.92
2017-04-14T07:59:47.858Z,18.92
2017-04-14T08:00:13.552Z,18.83
2017-04-14T08:00:39.122Z,18.86
2017-04-14T08:01:04.756Z,18.9
2017-04-14T08:01:30.341Z,18.9
2017-04-14T08:01:55.923Z,18.86
2017-04-14T08:02:21.471Z,18.86
2017-04-14T08:02:47.030Z,18.86
2017-04-14T08:03:12.673Z,18.87
2017-04-14T08:03:38.235Z,18.87
2017-04-14T08:04:03.783Z,18.91
2017-04-14T08:04:29.330Z,18.87
2017-04-14T08:04:54.870Z,18.94
2017-04-14T08:05:20.570Z,18.9
2017-04-14T08:05:46.154Z,18.87
2017-04-14T08:06:11.725Z,18.9
2017-04-14T08:06:37.296Z,18.84
2017-04-14T08:07:02.859Z,18.83
2017-04-14T08:07:28.428Z,18.83
2017-04-14T08:07:53.969Z,18.87
2017-04-14T08:08:19.561Z,18.9
2017-04-14T08:08:45.126Z,18.83
2017-04-14T08:09:10.655Z,18.9
2017-04-14T08:09:36.216Z,18.92
2017-04-14T08:10:01.783Z,18.9
2017-04-14T08:10:27.352Z,18.9
2017-04-14T08:10:52.965Z,18.87
2017-04-14T08:11:18.504Z,18.86
2017-04-14T08:11:44.072Z,18.9
2017-04-14T08:12:09.640Z,18.86
2017-04-14T08:12:35.220Z,18.91
2017-04-14T08:13:00.833Z,18.92
2017-04-14T08:13:26.408Z,18.92
2017-04-14T08:13:51.980Z,18.9
2017-04-14T08:14:17.567Z,18.86
2017-04-14T08:14:43.183Z,18.95
2017-04-14T08:15:08.765Z,18.91
2017-04-14T08:15:34.352Z,18.86
2017-04-14T08:15:59.944Z,18.87
2017-04-14T08:16:25.524Z,18.94
2017-04-14T08:16:51.073Z,18.95
2017-04-14T08:17:16.648Z,18.86
2017-04-14T08:17:42.201Z,18.92
2017-04-14T08:18:07.787Z,18.94
2017-04-14T08:18:33.356Z,18.91
2017-04-14T08:18:58.923Z,18.86
2017-04-14T08:19:24.546Z,18.86
2017-04-14T08:19:50.173Z,18.92
2017-04-14T08:20:15.735Z,18.86
2017-04-14T08:20:41.305Z,18.95
2017-04-14T08:21:06.885Z,18.84
2017-04-14T08:21:32.455Z,18.95
2017-04-14T08:21:58.060Z,18.92
2017-04-14T08:22:23.628Z,18.87
2017-04-14T08:22:49.180Z,18.87
2017-04-14T08:23:14.809Z,18.92
2017-04-14T08:23:40.507Z,18.91
2017-04-14T08:24:06.079Z,18.94
2017-04-14T08:24:31.633Z,18.87
2017-04-14T08:24:57.183Z,18.87
2017-04-14T08:25:22.734Z,18.94
2017-04-14T08:25:48.278Z,18.91
2017-04-14T08:26:13.845Z,18.92
2017-04-14T08:26:39.398Z,18.86
2017-04-14T08:27:04.988Z,18.91
2017-04-14T08:27:30.561Z,18.9
2017-04-14T08:27:56.128Z,18.83
2017-04-14T08:28:21.692Z,18.92
2017-04-14T08:28:47.396Z,18.94
2017-04-14T08:29:12.943Z,18.91
2017-04-14T08:29:38.513Z,18.91
2017-04-14T08:30:04.069Z,18.87
2017-04-14T08:30:29.623Z,18.94
2017-04-14T08:30:55.260Z,18.9
2017-04-14T08:31:20.812Z,18.91
2017-04-14T08:31:46.368Z,18.92
2017-04-14T08:32:12.045Z,18.84
2017-04-14T08:32:37.599Z,18.87
2017-04-14T08:33:03.179Z,18.86
2017-04-14T08:33:28.773Z,18.91
2017-04-14T08:33:54.420Z,18.92